createdAt,value
2019-05-07T00:00:29.972Z,78.25
2019-05-07T00:02:58.099Z,78.06
2019-05-07T00:05:26.471Z,78.00
2019-05-07T00:07:54.711Z,78.15
2019-05-07T00:10:24.859Z,78.20
2019-05-07T00:12:53.378Z,78.10
2019-05-07T00:15:23.008Z,78.15
2019-05-07T00:17:52.244Z,78.23
2019-05-07T00:20:23.019Z,78.43
2019-05-07T00:22:53.253Z,78.36
2019-05-07T00:25:22.872Z,78.38
2019-05-07T00:27:52.390Z,78.37
2019-05-07T00:30:22.332Z,78.39
2019-05-07T00:32:52.944Z,78.21
2019-05-07T00:35:24.146Z,78.28
2019-05-07T00:37:58.626Z,78.17
2019-05-07T00:40:38.310Z,77.73
2019-05-07T00:43:32.362Z,77.61
2019-05-07T00:46:13.028Z,77.61
2019-05-07T00:48:42.227Z,77.56
2019-05-07T00:51:29.037Z,77.48
2019-05-07T00:53:57.816Z,77.68
2019-05-07T00:56:26.161Z,77.62
2019-05-07T00:58:54.656Z,77.68
2019-05-07T01:01:23.437Z,77.68
2019-05-07T01:03:53.435Z,78.17
2019-05-07T01:06:22.733Z,78.05
2019-05-07T01:08:52.580Z,78.12
2019-05-07T01:11:22.679Z,78.13
2019-05-07T01:13:52.038Z,77.94
2019-05-07T01:16:22.228Z,78.11
2019-05-07T01:18:53.612Z,77.83
2019-05-07T01:21:22.706Z,77.81
2019-05-07T01:23:52.333Z,77.62
2019-05-07T01:26:22.043Z,77.76
2019-05-07T01:29:02.483Z,77.46
2019-05-07T01:31:38.890Z,77.51
2019-05-07T01:34:35.679Z,77.22
2019-05-07T01:37:03.818Z,76.93
2019-05-07T01:39:33.293Z,77.42
2019-05-07T01:42:02.173Z,77.41
2019-05-07T01:44:32.516Z,77.30
2019-05-07T01:47:02.533Z,77.48
2019-05-07T01:49:33.092Z,77.35
2019-05-07T01:52:02.584Z,77.33
2019-05-07T01:54:33.199Z,77.73
2019-05-07T01:57:02.971Z,77.77
2019-05-07T01:59:32.187Z,77.84
2019-05-07T02:02:07.574Z,78.08
2019-05-07T02:04:42.727Z,77.81
2019-05-07T02:07:28.767Z,78.03
2019-05-07T02:10:19.761Z,78.26
2019-05-07T02:12:48.209Z,78.17
2019-05-07T02:15:17.122Z,78.43
2019-05-07T02:17:45.277Z,78.12
2019-05-07T02:20:14.449Z,78.45
2019-05-07T02:22:42.841Z,78.60
2019-05-07T02:25:12.675Z,78.58
2019-05-07T02:27:42.107Z,78.20
2019-05-07T02:30:14.462Z,78.28
2019-05-07T02:32:43.220Z,78.20
2019-05-07T02:35:13.505Z,78.57
2019-05-07T02:37:55.712Z,78.21
2019-05-07T02:40:43.030Z,78.01
2019-05-07T02:43:14.069Z,78.22
2019-05-07T02:46:27.501Z,78.46
2019-05-07T02:49:07.702Z,78.34
2019-05-07T02:51:43.502Z,78.19
2019-05-07T02:54:24.617Z,78.57
2019-05-07T02:56:53.463Z,78.18
2019-05-07T02:59:23.375Z,77.72
2019-05-07T03:01:53.824Z,77.47
2019-05-07T03:04:25.071Z,77.48
2019-05-07T03:06:54.237Z,77.20
2019-05-07T03:09:22.918Z,77.55
2019-05-07T03:11:52.949Z,77.32
2019-05-07T03:14:23.340Z,77.51
2019-05-07T03:16:53.611Z,77.75
2019-05-07T03:19:24.213Z,77.71
2019-05-07T03:21:53.851Z,77.78
2019-05-07T03:24:36.909Z,77.31
2019-05-07T03:27:05.793Z,77.44
2019-05-07T03:29:36.645Z,77.62
2019-05-07T03:32:39.460Z,77.94
2019-05-07T03:35:27.710Z,77.98
2019-05-07T03:37:56.822Z,77.99
2019-05-07T03:40:25.057Z,78.25
2019-05-07T03:42:53.815Z,78.57
2019-05-07T03:45:46.552Z,78.31
2019-05-07T03:48:19.348Z,78.26
2019-05-07T03:50:47.948Z,78.52
2019-05-07T03:53:16.362Z,78.23
2019-05-07T03:55:45.061Z,78.21
2019-05-07T03:58:14.586Z,78.28
2019-05-07T04:00:44.649Z,78.47
2019-05-07T04:03:15.022Z,78.50
2019-05-07T04:05:44.012Z,78.36
2019-05-07T04:08:13.176Z,78.57
2019-05-07T04:10:44.162Z,78.47
2019-05-07T04:13:13.455Z,78.50
2019-05-07T04:15:43.791Z,78.54
2019-05-07T04:18:13.300Z,78.38
2019-05-07T04:20:43.486Z,78.52
2019-05-07T04:23:13.838Z,78.58
2019-05-07T04:26:03.863Z,78.58
2019-05-07T04:28:34.690Z,78.10
2019-05-07T04:31:04.250Z,77.43
2019-05-07T04:33:39.609Z,77.43
2019-05-07T04:36:33.720Z,77.37
2019-05-07T04:39:02.957Z,76.69
2019-05-07T04:41:33.008Z,76.60
2019-05-07T04:44:03.600Z,76.88
2019-05-07T04:46:33.350Z,76.88
2019-05-07T04:49:03.764Z,76.91
2019-05-07T04:51:39.264Z,76.49
2019-05-07T04:54:07.413Z,76.48
2019-05-07T04:56:35.608Z,76.54
2019-05-07T04:59:03.915Z,76.19
2019-05-07T05:01:36.170Z,76.17
2019-05-07T05:04:21.118Z,75.80
2019-05-07T05:06:34.829Z,75.66
2019-05-07T05:09:05.101Z,75.82
2019-05-07T05:11:33.947Z,75.63
2019-05-07T05:14:02.934Z,74.64
2019-05-07T05:16:32.862Z,74.19
2019-05-07T05:19:02.511Z,72.13
2019-05-07T05:21:52.833Z,70.31
2019-05-07T05:24:27.384Z,68.33
2019-05-07T05:26:55.887Z,68.44
2019-05-07T05:29:24.229Z,66.62
2019-05-07T05:31:52.953Z,65.20
2019-05-07T05:34:22.526Z,64.16
2019-05-07T05:36:52.614Z,62.92
2019-05-07T05:39:22.452Z,62.71
2019-05-07T05:41:55.305Z,61.83
2019-05-07T05:44:31.963Z,62.07
2019-05-07T05:47:02.274Z,61.52
2019-05-07T05:49:32.206Z,61.06
2019-05-07T05:52:19.515Z,60.29
2019-05-07T05:54:55.564Z,59.97
2019-05-07T05:57:51.858Z,61.20
2019-05-07T06:00:42.281Z,60.12
2019-05-07T06:03:37.135Z,59.97
2019-05-07T06:06:15.931Z,59.26
2019-05-07T06:08:59.124Z,59.54
2019-05-07T06:11:34.611Z,60.33
2019-05-07T06:14:22.179Z,59.86
2019-05-07T06:17:02.388Z,59.40
2019-05-07T06:19:37.578Z,59.41
2019-05-07T06:22:33.088Z,58.75
2019-05-07T06:25:14.858Z,59.07
2019-05-07T06:27:43.336Z,59.25
2019-05-07T06:30:12.170Z,58.34
2019-05-07T06:32:42.770Z,58.47
2019-05-07T06:35:12.314Z,57.90
2019-05-07T06:37:42.873Z,57.78
2019-05-07T06:40:33.691Z,57.95
2019-05-07T06:43:12.289Z,57.71
2019-05-07T06:45:43.187Z,57.77
2019-05-07T06:48:12.664Z,56.79
2019-05-07T06:50:55.713Z,55.37
2019-05-07T06:53:29.404Z,56.10
2019-05-07T06:55:59.620Z,55.02
2019-05-07T06:58:47.999Z,55.25
2019-05-07T07:01:27.694Z,55.15
2019-05-07T07:04:02.924Z,54.20
2019-05-07T07:06:52.503Z,54.83
2019-05-07T07:09:52.640Z,54.84
2019-05-07T07:12:26.023Z,53.94
2019-05-07T07:14:54.198Z,52.51
2019-05-07T07:17:22.454Z,54.53
2019-05-07T07:19:52.322Z,52.19
2019-05-07T07:22:22.296Z,53.52
2019-05-07T07:24:53.074Z,51.79
2019-05-07T07:27:22.704Z,51.45
2019-05-07T07:29:58.259Z,51.75
2019-05-07T07:32:33.271Z,51.34
2019-05-07T07:35:02.532Z,50.83
2019-05-07T07:37:38.318Z,51.96
2019-05-07T07:40:22.780Z,49.76
2019-05-07T07:42:52.107Z,49.42
2019-05-07T07:45:22.810Z,48.93
2019-05-07T07:47:53.036Z,47.95
2019-05-07T07:50:22.441Z,47.08
2019-05-07T07:52:52.904Z,46.67
2019-05-07T07:55:26.424Z,45.91
2019-05-07T07:58:14.565Z,46.58
2019-05-07T08:00:52.412Z,45.58
2019-05-07T08:03:22.564Z,44.72
2019-05-07T08:05:51.859Z,43.17
2019-05-07T08:08:22.033Z,42.69
2019-05-07T08:10:57.168Z,42.70
2019-05-07T08:13:26.072Z,39.46
2019-05-07T08:15:54.325Z,42.67
2019-05-07T08:18:22.512Z,42.98
2019-05-07T08:20:51.985Z,43.86
2019-05-07T08:23:22.656Z,45.52
2019-05-07T08:25:52.541Z,47.11
2019-05-07T08:28:23.200Z,46.41
2019-05-07T08:30:59.675Z,45.02
2019-05-07T08:33:32.461Z,43.17
2019-05-07T08:36:15.070Z,44.26
2019-05-07T08:38:52.844Z,45.23
2019-05-07T08:41:22.629Z,45.14
2019-05-07T08:44:07.316Z,45.89
2019-05-07T08:46:48.892Z,46.96
2019-05-07T08:49:17.972Z,47.35
2019-05-07T08:51:59.533Z,46.64
2019-05-07T08:54:32.111Z,46.62
2019-05-07T08:57:02.448Z,45.44
2019-05-07T08:59:32.206Z,44.80
2019-05-07T09:02:02.927Z,45.23
2019-05-07T09:04:32.620Z,45.91
2019-05-07T09:07:02.643Z,44.77
2019-05-07T09:09:32.407Z,46.09
2019-05-07T09:12:02.954Z,45.67
2019-05-07T09:14:31.990Z,45.99
2019-05-07T09:17:02.590Z,43.07
2019-05-07T09:19:32.399Z,43.55
2019-05-07T09:22:02.268Z,41.20
2019-05-07T09:24:32.988Z,38.99
2019-05-07T09:27:09.223Z,38.18
2019-05-07T09:29:53.124Z,37.89
2019-05-07T09:32:27.278Z,38.66
2019-05-07T09:34:55.874Z,39.69
2019-05-07T09:37:26.725Z,38.19
2019-05-07T09:39:56.682Z,38.41
2019-05-07T09:42:25.729Z,36.96
2019-05-07T09:44:55.996Z,38.24
2019-05-07T09:47:24.845Z,37.35
2019-05-07T09:50:04.003Z,36.99
2019-05-07T09:52:23.126Z,37.67
2019-05-07T09:54:52.297Z,39.20
2019-05-07T09:57:30.104Z,38.75
2019-05-07T09:59:53.002Z,38.31
2019-05-07T10:02:22.736Z,38.05
2019-05-07T10:04:52.614Z,35.84
2019-05-07T10:07:22.319Z,35.15
2019-05-07T10:09:52.548Z,36.09
2019-05-07T10:12:30.306Z,34.14
2019-05-07T10:14:58.890Z,33.56
2019-05-07T10:17:55.822Z,34.66
2019-05-07T10:20:25.659Z,33.24
2019-05-07T10:22:54.709Z,34.25
2019-05-07T10:25:24.980Z,34.88
2019-05-07T10:27:53.407Z,33.69
2019-05-07T10:30:21.938Z,35.00
2019-05-07T10:32:52.563Z,32.94
2019-05-07T10:35:22.741Z,32.49
2019-05-07T10:37:52.753Z,32.40
2019-05-07T10:40:22.625Z,31.21
2019-05-07T10:42:51.881Z,33.55
2019-05-07T10:45:49.270Z,33.23
2019-05-07T10:48:43.408Z,32.51
2019-05-07T10:51:12.318Z,34.22
2019-05-07T10:53:42.398Z,33.51
2019-05-07T10:56:11.805Z,32.67
2019-05-07T10:58:41.782Z,32.99
2019-05-07T11:01:13.128Z,33.60
2019-05-07T11:03:42.618Z,33.22
2019-05-07T11:06:11.995Z,32.10
2019-05-07T11:08:40.312Z,32.23
2019-05-07T11:11:09.336Z,32.32
2019-05-07T11:13:37.464Z,32.98
2019-05-07T11:16:11.622Z,32.57
2019-05-07T11:18:51.756Z,30.97
2019-05-07T11:21:29.583Z,34.34
2019-05-07T11:24:00.035Z,32.23
2019-05-07T11:26:29.726Z,33.06
2019-05-07T11:28:57.865Z,32.95
2019-05-07T11:31:26.118Z,32.63
2019-05-07T11:33:55.048Z,33.06
2019-05-07T11:36:23.232Z,32.30
2019-05-07T11:38:52.706Z,32.07
2019-05-07T11:41:32.023Z,32.40
2019-05-07T11:44:06.258Z,32.70
2019-05-07T11:47:00.101Z,33.11
2019-05-07T11:49:46.672Z,33.56
2019-05-07T11:52:17.942Z,34.02
2019-05-07T11:54:46.143Z,31.81
2019-05-07T11:57:15.123Z,33.97
2019-05-07T11:59:43.262Z,32.67
2019-05-07T12:02:12.199Z,32.36
2019-05-07T12:04:42.241Z,31.41
2019-05-07T12:07:11.901Z,31.91
2019-05-07T12:09:40.722Z,32.34
2019-05-07T12:12:08.902Z,33.14
2019-05-07T12:14:37.687Z,33.62
2019-05-07T12:17:05.959Z,33.67
2019-05-07T12:19:34.693Z,32.78
2019-05-07T12:22:04.405Z,32.98
2019-05-07T12:24:33.191Z,31.62
2019-05-07T12:27:02.694Z,31.35
2019-05-07T12:29:32.236Z,31.01
2019-05-07T12:32:12.988Z,32.06
2019-05-07T12:34:44.764Z,32.66
2019-05-07T12:37:12.966Z,31.70
2019-05-07T12:39:42.303Z,30.42
2019-05-07T12:42:12.068Z,31.32
2019-05-07T12:44:42.426Z,30.93
2019-05-07T12:47:12.045Z,31.57
2019-05-07T12:49:42.829Z,30.50
2019-05-07T12:52:18.051Z,30.87
2019-05-07T12:55:04.640Z,30.13
2019-05-07T12:57:32.820Z,30.93
2019-05-07T13:00:19.361Z,31.46
2019-05-07T13:03:12.794Z,31.47
2019-05-07T13:05:41.730Z,32.09
2019-05-07T13:08:12.239Z,31.16
2019-05-07T13:10:42.718Z,31.46
2019-05-07T13:13:12.304Z,32.13
2019-05-07T13:15:43.186Z,31.14
2019-05-07T13:18:12.678Z,32.50
2019-05-07T13:20:41.095Z,31.21
2019-05-07T13:23:11.927Z,32.37
2019-05-07T13:25:40.400Z,31.21
2019-05-07T13:28:08.584Z,30.66
2019-05-07T13:30:36.721Z,31.28
2019-05-07T13:33:06.658Z,31.33
2019-05-07T13:35:35.934Z,30.78
2019-05-07T13:38:23.871Z,31.75
2019-05-07T13:41:05.470Z,31.33
2019-05-07T13:43:39.638Z,29.77
2019-05-07T13:46:12.135Z,30.84
2019-05-07T13:48:43.974Z,30.70
2019-05-07T13:51:12.280Z,30.52
2019-05-07T13:53:42.727Z,30.27
2019-05-07T13:56:12.848Z,30.56
2019-05-07T13:58:42.889Z,30.07
2019-05-07T14:01:35.947Z,29.69
2019-05-07T14:04:04.539Z,29.69
2019-05-07T14:06:39.096Z,30.16
2019-05-07T14:09:17.726Z,31.42
2019-05-07T14:11:46.271Z,31.28
2019-05-07T14:14:14.477Z,30.08
2019-05-07T14:16:44.993Z,29.81
2019-05-07T14:19:13.965Z,29.52
2019-05-07T14:21:42.375Z,29.94
2019-05-07T14:24:12.356Z,29.98
2019-05-07T14:26:42.267Z,29.54
2019-05-07T14:29:11.469Z,29.74
2019-05-07T14:31:42.562Z,30.16
2019-05-07T14:34:32.158Z,30.60
2019-05-07T14:37:12.913Z,30.91
2019-05-07T14:39:42.560Z,30.09
2019-05-07T14:42:14.852Z,30.56
2019-05-07T14:44:50.177Z,32.44
2019-05-07T14:47:19.185Z,34.07
2019-05-07T14:49:48.711Z,32.01
2019-05-07T14:52:29.165Z,31.92
2019-05-07T14:54:49.424Z,31.76
2019-05-07T14:57:17.673Z,31.64
2019-05-07T14:59:46.556Z,33.26
2019-05-07T15:02:14.808Z,31.94
2019-05-07T15:04:43.203Z,32.21
2019-05-07T15:07:12.121Z,32.54
2019-05-07T15:09:42.454Z,32.96
2019-05-07T15:12:12.442Z,32.49
2019-05-07T15:14:42.154Z,32.16
2019-05-07T15:17:18.593Z,33.07
2019-05-07T15:19:46.779Z,32.57
2019-05-07T15:22:46.194Z,32.12
2019-05-07T15:25:05.222Z,32.74
2019-05-07T15:27:33.825Z,32.78
2019-05-07T15:30:02.422Z,33.02
2019-05-07T15:32:32.330Z,32.37
2019-05-07T15:35:02.232Z,32.60
2019-05-07T15:37:32.234Z,32.68
2019-05-07T15:40:02.507Z,33.62
2019-05-07T15:42:32.684Z,34.52
2019-05-07T15:45:09.361Z,34.08
2019-05-07T15:47:42.474Z,34.88
2019-05-07T15:50:12.567Z,33.96
2019-05-07T15:53:01.759Z,34.37
2019-05-07T15:55:30.607Z,35.39
2019-05-07T15:58:00.025Z,34.97
2019-05-07T16:00:30.459Z,35.46
2019-05-07T16:03:12.429Z,35.55
2019-05-07T16:05:42.510Z,36.06
2019-05-07T16:08:13.174Z,35.52
2019-05-07T16:10:42.661Z,35.25
2019-05-07T16:13:13.736Z,35.68
2019-05-07T16:15:42.690Z,35.12
2019-05-07T16:18:14.737Z,34.37
2019-05-07T16:20:43.042Z,35.52
2019-05-07T16:23:15.669Z,35.47
2019-05-07T16:25:42.245Z,34.72
2019-05-07T16:28:12.763Z,35.34
2019-05-07T16:30:42.710Z,34.87
2019-05-07T16:33:12.826Z,34.84
2019-05-07T16:35:42.489Z,35.67
2019-05-07T16:38:14.461Z,35.83
2019-05-07T16:40:42.847Z,35.38
2019-05-07T16:43:12.182Z,35.23
2019-05-07T16:45:42.325Z,36.13
2019-05-07T16:48:11.982Z,35.77
2019-05-07T16:50:40.722Z,36.03
2019-05-07T16:53:09.392Z,36.15
2019-05-07T16:55:38.445Z,35.99
2019-05-07T16:58:26.282Z,36.45
2019-05-07T17:01:00.200Z,35.62
2019-05-07T17:03:35.045Z,35.88
2019-05-07T17:06:03.958Z,35.80
2019-05-07T17:08:38.136Z,36.38
2019-05-07T17:11:06.321Z,36.43
2019-05-07T17:13:34.451Z,36.70
2019-05-07T17:16:03.534Z,36.83
2019-05-07T17:18:32.637Z,37.08
2019-05-07T17:21:02.034Z,37.53
2019-05-07T17:23:43.632Z,37.34
2019-05-07T17:26:00.682Z,37.05
2019-05-07T17:28:29.164Z,37.13
2019-05-07T17:30:57.376Z,37.56
2019-05-07T17:33:25.521Z,37.82
2019-05-07T17:35:54.430Z,38.47
2019-05-07T17:38:23.086Z,37.76
2019-05-07T17:40:52.381Z,37.49
2019-05-07T17:43:21.996Z,36.96
2019-05-07T17:45:52.258Z,37.53
2019-05-07T17:48:23.019Z,38.00
2019-05-07T17:51:13.784Z,38.39
2019-05-07T17:53:50.452Z,38.03
2019-05-07T17:56:12.835Z,38.60
2019-05-07T17:58:42.683Z,38.95
2019-05-07T18:01:11.694Z,38.72
2019-05-07T18:03:42.324Z,39.33
2019-05-07T18:06:12.348Z,38.89
2019-05-07T18:08:40.671Z,40.01
2019-05-07T18:11:20.147Z,39.95
2019-05-07T18:13:38.973Z,40.49
2019-05-07T18:16:14.412Z,40.82
2019-05-07T18:18:43.188Z,39.93
2019-05-07T18:21:12.589Z,40.77
2019-05-07T18:23:41.460Z,41.33
2019-05-07T18:26:09.736Z,41.38
2019-05-07T18:28:38.200Z,41.95
2019-05-07T18:31:06.454Z,41.94
2019-05-07T18:33:41.803Z,42.13
2019-05-07T18:36:12.096Z,42.46
2019-05-07T18:38:42.397Z,43.03
2019-05-07T18:41:12.347Z,43.12
2019-05-07T18:43:42.119Z,43.87
2019-05-07T18:46:12.639Z,43.84
2019-05-07T18:48:42.631Z,44.31
2019-05-07T18:51:12.121Z,44.48
2019-05-07T18:53:42.340Z,44.38
2019-05-07T18:56:12.456Z,44.46
2019-05-07T18:58:42.633Z,44.87
2019-05-07T19:01:12.438Z,44.64
2019-05-07T19:03:42.035Z,45.06
2019-05-07T19:06:13.149Z,45.39
2019-05-07T19:08:42.255Z,45.84
2019-05-07T19:11:12.353Z,46.08
2019-05-07T19:13:42.141Z,46.16
2019-05-07T19:16:12.501Z,46.06
2019-05-07T19:18:43.043Z,46.10
2019-05-07T19:21:11.390Z,46.49
2019-05-07T19:23:42.182Z,46.67
2019-05-07T19:26:12.827Z,47.03
2019-05-07T19:28:40.919Z,46.81
2019-05-07T19:31:09.273Z,47.05
2019-05-07T19:33:41.923Z,47.17
2019-05-07T19:36:11.142Z,46.81
2019-05-07T19:38:43.578Z,46.98
2019-05-07T19:41:12.641Z,47.13
2019-05-07T19:43:41.982Z,47.58
2019-05-07T19:46:12.391Z,47.74
2019-05-07T19:48:46.841Z,48.61
2019-05-07T19:51:28.989Z,49.04
2019-05-07T19:53:57.447Z,49.05
2019-05-07T19:56:28.103Z,48.90
2019-05-07T19:58:56.524Z,49.41
2019-05-07T20:01:36.536Z,50.27
2019-05-07T20:04:04.672Z,50.17
2019-05-07T20:06:33.460Z,50.61
2019-05-07T20:09:09.923Z,51.10
2019-05-07T20:11:42.585Z,50.59
2019-05-07T20:14:11.193Z,51.08
2019-05-07T20:16:39.475Z,50.65
2019-05-07T20:19:07.642Z,50.48
2019-05-07T20:21:35.868Z,49.56
2019-05-07T20:24:04.300Z,49.10
2019-05-07T20:26:32.932Z,48.84
2019-05-07T20:29:03.018Z,48.74
2019-05-07T20:31:33.518Z,49.31
2019-05-07T20:34:06.336Z,49.61
2019-05-07T20:36:34.683Z,49.12
2019-05-07T20:39:05.731Z,49.25
2019-05-07T20:41:33.926Z,49.47
2019-05-07T20:44:03.028Z,49.58
2019-05-07T20:46:32.018Z,49.62
2019-05-07T20:49:02.658Z,49.91
2019-05-07T20:51:32.489Z,49.99
2019-05-07T20:54:22.697Z,50.07
2019-05-07T20:57:05.536Z,50.14
2019-05-07T20:59:34.021Z,50.79
2019-05-07T21:02:02.480Z,50.61
2019-05-07T21:04:33.034Z,50.50
2019-05-07T21:07:02.147Z,50.49
2019-05-07T21:09:32.802Z,50.83
2019-05-07T21:12:01.238Z,50.46
2019-05-07T21:14:32.267Z,50.47
2019-05-07T21:17:00.323Z,50.54
2019-05-07T21:19:28.565Z,50.45
2019-05-07T21:21:56.843Z,50.73
2019-05-07T21:24:25.387Z,50.08
2019-05-07T21:26:53.574Z,50.88
2019-05-07T21:29:21.788Z,51.58
2019-05-07T21:31:52.288Z,51.40
2019-05-07T21:34:22.828Z,51.83
2019-05-07T21:36:52.391Z,52.60
2019-05-07T21:39:22.347Z,52.45
2019-05-07T21:41:51.962Z,53.07
2019-05-07T21:44:25.020Z,53.45
2019-05-07T21:46:51.822Z,53.63
2019-05-07T21:49:22.269Z,53.49
2019-05-07T21:51:52.240Z,53.48
2019-05-07T21:54:27.684Z,53.73
2019-05-07T21:57:17.358Z,54.08
2019-05-07T21:59:45.493Z,54.06
2019-05-07T22:02:22.089Z,54.37
2019-05-07T22:04:52.755Z,54.41
2019-05-07T22:07:22.724Z,53.92
2019-05-07T22:09:52.343Z,54.29
2019-05-07T22:12:22.616Z,54.45
2019-05-07T22:14:50.908Z,55.07
2019-05-07T22:17:19.424Z,55.99
2019-05-07T22:19:47.653Z,55.97
2019-05-07T22:22:16.043Z,55.88
2019-05-07T22:24:44.875Z,55.95
2019-05-07T22:27:13.081Z,56.11
2019-05-07T22:29:42.186Z,56.35
2019-05-07T22:32:32.980Z,56.76
2019-05-07T22:35:07.234Z,57.06
2019-05-07T22:37:35.391Z,57.81
2019-05-07T22:40:04.494Z,58.83
2019-05-07T22:42:32.846Z,60.67
2019-05-07T22:45:02.792Z,61.72
2019-05-07T22:47:32.635Z,62.36
2019-05-07T22:50:02.767Z,63.02
2019-05-07T22:52:32.628Z,63.78
2019-05-07T22:55:01.270Z,64.17
2019-05-07T22:57:52.562Z,64.95
2019-05-07T23:00:32.153Z,65.41
2019-05-07T23:03:02.766Z,65.57
2019-05-07T23:05:32.384Z,65.67
2019-05-07T23:08:02.445Z,65.39
2019-05-07T23:10:33.106Z,65.65
2019-05-07T23:13:02.303Z,64.99
2019-05-07T23:15:32.171Z,64.29
2019-05-07T23:18:04.168Z,63.96
2019-05-07T23:20:31.957Z,64.34
2019-05-07T23:23:00.423Z,64.29
2019-05-07T23:25:28.894Z,64.97
2019-05-07T23:27:57.278Z,64.82
2019-05-07T23:30:25.583Z,63.85
2019-05-07T23:32:53.843Z,63.99
2019-05-07T23:35:22.312Z,63.75
2019-05-07T23:37:52.999Z,63.70
2019-05-07T23:40:32.165Z,63.88
2019-05-07T23:43:03.404Z,64.28
2019-05-07T23:45:31.730Z,63.68
2019-05-07T23:47:59.912Z,63.95
2019-05-07T23:50:28.575Z,64.63
2019-05-07T23:52:57.047Z,64.06
2019-05-07T23:55:25.638Z,64.66
2019-05-07T23:57:54.018Z,63.94
